Time;durP1;ratioP1;P1;durP2;ratioP2;P2;SDS_P1;SDS_P2;PMS_P1;PMS_P2;Temp;Humidity;BMP_temperature;BMP_pressure;BME280_temperature;BME280_humidity;BME280_pressure;Samples;Min_cycle;Max_cycle;Signal;HPM_P1;HPM_P2
2024/01/17 00:00:00;;;;;;;1999.90;999.90;;;-0.50;99.90;;;;;;5091642;28;20407;-69
2024/01/17 00:02:26;;;;;;;1999.90;999.90;;;-0.50;99.90;;;;;;5091520;28;20137;-69
2024/01/17 00:04:54;;;;;;;1999.90;999.90;;;-0.50;99.90;;;;;;5091601;28;20035;-69
2024/01/17 00:07:20;;;;;;;1999.90;999.90;;;-0.50;99.90;;;;;;5086523;28;20486;-69
2024/01/17 00:09:47;;;;;;;1999.90;999.90;;;-0.50;99.90;;;;;;5085928;28;20098;-70
2024/01/17 00:12:12;;;;;;;1999.90;999.90;;;-0.50;99.90;;;;;;5091975;28;20028;-69
2024/01/17 00:14:38;;;;;;;1999.90;999.90;;;-0.50;99.90;;;;;;5081025;28;20109;-69
2024/01/17 00:17:04;;;;;;;1999.90;999.90;;;-0.50;99.90;;;;;;5085960;28;20472;-69
2024/01/17 00:19:31;;;;;;;1999.90;999.90;;;-0.50;99.90;;;;;;5090905;28;20024;-69
2024/01/17 00:21:57;;;;;;;1999.90;999.90;;;-0.60;99.90;;;;;;5087563;28;20055;-69
2024/01/17 00:24:23;;;;;;;1999.90;999.90;;;-0.60;99.90;;;;;;5068991;28;20032;-70
2024/01/17 00:26:48;;;;;;;1999.90;999.90;;;-0.60;99.90;;;;;;5073007;28;20380;-69
2024/01/17 00:29:15;;;;;;;1999.90;999.90;;;-0.60;99.90;;;;;;5084859;28;20036;-69
2024/01/17 00:31:42;;;;;;;1999.90;999.90;;;-0.70;99.90;;;;;;5092231;28;20077;-69
2024/01/17 00:34:08;;;;;;;1999.90;999.90;;;-0.70;99.90;;;;;;5092478;28;20349;-69
2024/01/17 00:36:33;;;;;;;1999.90;999.90;;;-0.70;99.90;;;;;;5084498;28;20025;-69
2024/01/17 00:38:59;;;;;;;1999.90;999.90;;;-0.80;99.90;;;;;;5088581;28;20103;-69
2024/01/17 00:41:25;;;;;;;1999.90;999.90;;;-0.80;99.90;;;;;;5092151;28;20077;-69
2024/01/17 00:43:50;;;;;;;1999.90;999.90;;;-0.90;99.90;;;;;;5077962;28;20036;-69
2024/01/17 00:46:17;;;;;;;1999.90;999.90;;;-0.90;99.90;;;;;;5092217;28;20043;-69
2024/01/17 00:48:42;;;;;;;1999.90;999.90;;;-0.90;99.90;;;;;;5074000;28;20024;-69
2024/01/17 00:51:08;;;;;;;1999.90;999.90;;;-1.00;99.90;;;;;;5092580;28;20459;-69
2024/01/17 00:53:34;;;;;;;1999.90;999.90;;;-1.00;99.90;;;;;;5084785;28;20024;-71
2024/01/17 00:56:00;;;;;;;1999.90;999.90;;;-1.00;99.90;;;;;;5089797;28;20024;-70
2024/01/17 00:58:25;;;;;;;1999.90;999.90;;;-1.10;99.90;;;;;;5089044;28;20039;-69
2024/01/17 01:00:51;;;;;;;1999.90;999.90;;;-1.10;99.90;;;;;;5087884;28;20032;-69
2024/01/17 01:03:17;;;;;;;1999.90;999.90;;;-1.10;99.90;;;;;;5090672;28;20032;-69
2024/01/17 01:05:42;;;;;;;1999.90;999.90;;;-1.10;99.90;;;;;;5091972;28;20034;-69
2024/01/17 01:08:08;;;;;;;1999.90;999.90;;;-1.10;99.90;;;;;;5087850;28;20021;-69
2024/01/17 01:10:33;;;;;;;1999.90;999.90;;;-1.10;99.90;;;;;;5086573;28;20040;-69
2024/01/17 01:12:59;;;;;;;1999.90;999.90;;;-1.20;99.90;;;;;;5083518;28;20020;-69
2024/01/17 01:15:25;;;;;;;1999.90;999.90;;;-1.10;99.90;;;;;;5085290;28;20096;-69
2024/01/17 01:17:50;;;;;;;1999.90;999.90;;;-1.10;99.90;;;;;;5073023;28;20183;-69
2024/01/17 01:20:16;;;;;;;1999.90;999.90;;;-1.10;99.90;;;;;;5082398;28;20064;-70
2024/01/17 01:22:43;;;;;;;1999.90;999.90;;;-1.10;99.90;;;;;;5090860;28;20032;-69
2024/01/17 01:25:09;;;;;;;1999.90;999.90;;;-1.10;99.90;;;;;;5088214;28;20343;-69
2024/01/17 01:27:34;;;;;;;1999.90;999.90;;;-1.00;99.90;;;;;;5090169;28;20035;-70
2024/01/17 01:30:00;;;;;;;1999.90;999.90;;;-1.00;99.90;;;;;;5084246;28;20032;-69
2024/01/17 01:32:27;;;;;;;1999.90;999.90;;;-1.00;99.90;;;;;;5091707;28;20040;-69
2024/01/17 01:34:52;;;;;;;;;;;-1.10;99.90;;;;;;5085002;28;20035;-70
2024/01/17 01:37:18;;;;;;;1999.90;999.90;;;-1.00;99.90;;;;;;5091841;28;20210;-69
2024/01/17 01:39:44;;;;;;;1999.90;999.90;;;-1.00;99.90;;;;;;5070840;28;20032;-69
2024/01/17 01:42:09;;;;;;;1999.90;999.90;;;-1.00;99.90;;;;;;5091153;28;20452;-69
2024/01/17 01:44:35;;;;;;;1999.90;999.90;;;-1.00;99.90;;;;;;5076232;28;20025;-69
2024/01/17 01:47:01;;;;;;;1999.90;999.90;;;-1.00;99.90;;;;;;5088135;28;20052;-69
2024/01/17 01:49:27;;;;;;;1999.90;999.90;;;-1.00;99.90;;;;;;5093251;28;20039;-69
2024/01/17 01:51:53;;;;;;;1999.90;999.90;;;-0.90;99.90;;;;;;5073003;28;20029;-69
2024/01/17 01:54:21;;;;;;;1999.90;999.90;;;-1.00;99.90;;;;;;5093746;28;20024;-70
2024/01/17 01:56:48;;;;;;;1999.90;999.90;;;-1.00;99.90;;;;;;5089244;28;20033;-69
2024/01/17 01:59:17;;;;;;;1999.90;999.90;;;-0.90;99.90;;;;;;5079892;28;21540;-69
2024/01/17 02:01:43;;;;;;;1999.90;999.90;;;-0.90;99.90;;;;;;5088450;28;20094;-69
2024/01/17 02:04:10;;;;;;;1999.90;999.90;;;-0.90;99.90;;;;;;5086236;28;20536;-69
2024/01/17 02:06:35;;;;;;;1999.90;999.90;;;-0.80;99.90;;;;;;5094884;28;20040;-69
2024/01/17 02:09:02;;;;;;;1999.90;999.90;;;-0.80;99.90;;;;;;5086469;28;20080;-70
2024/01/17 02:11:29;;;;;;;1999.90;999.90;;;-0.80;99.90;;;;;;5086116;28;20323;-69
2024/01/17 02:13:55;;;;;;;1999.90;999.90;;;-0.80;99.90;;;;;;5090697;28;20024;-69
2024/01/17 02:16:23;;;;;;;1999.90;999.90;;;-0.80;99.90;;;;;;5071781;28;20425;-69
2024/01/17 02:18:50;;;;;;;1999.90;999.90;;;-0.80;99.90;;;;;;5091656;28;20102;-71
2024/01/17 02:21:16;;;;;;;1999.90;999.90;;;-0.80;99.90;;;;;;5094868;28;20016;-69
2024/01/17 02:23:41;;;;;;;1999.90;999.90;;;-0.80;99.90;;;;;;5092459;28;20040;-70
2024/01/17 02:26:08;;;;;;;1999.90;999.90;;;-0.80;99.90;;;;;;5089729;28;20376;-69
2024/01/17 02:28:33;;;;;;;1999.90;999.90;;;-0.80;99.90;;;;;;5092446;28;20119;-69
2024/01/17 02:30:59;;;;;;;1999.90;999.90;;;-0.80;99.90;;;;;;5087598;28;20182;-69
2024/01/17 02:33:25;;;;;;;1999.90;999.90;;;-0.80;99.90;;;;;;5083072;28;20035;-70
2024/01/17 02:35:51;;;;;;;1999.90;999.90;;;-0.80;99.90;;;;;;5076740;28;20411;-69
2024/01/17 02:38:17;;;;;;;1999.90;999.90;;;-0.80;99.90;;;;;;5086971;28;20029;-69
2024/01/17 02:40:42;;;;;;;1999.90;999.90;;;-0.80;99.90;;;;;;5093103;28;20637;-71
2024/01/17 02:43:08;;;;;;;1999.90;999.90;;;-0.80;99.90;;;;;;5091116;28;20040;-69
2024/01/17 02:45:34;;;;;;;1999.90;999.90;;;-0.80;99.90;;;;;;5080786;28;20033;-69
2024/01/17 02:48:00;;;;;;;1999.90;999.90;;;-0.80;99.90;;;;;;5088841;28;20035;-70
2024/01/17 02:50:27;;;;;;;1999.90;999.90;;;-0.80;99.90;;;;;;5086407;28;20046;-69
2024/01/17 02:52:55;;;;;;;;;;;-0.80;99.90;;;;;;5085475;28;20021;-70
2024/01/17 02:55:23;;;;;;;1999.90;999.90;;;-0.90;99.90;;;;;;5092133;28;20214;-69
2024/01/17 02:57:50;;;;;;;1999.90;999.90;;;-0.90;99.90;;;;;;5082304;28;20020;-69
2024/01/17 03:00:15;;;;;;;;;;;-0.90;99.90;;;;;;5090270;28;20070;-70
2024/01/17 03:02:41;;;;;;;1999.90;999.90;;;-0.80;99.90;;;;;;5087862;28;20697;-70
2024/01/17 03:05:07;;;;;;;1999.90;999.90;;;-0.80;99.90;;;;;;5089972;28;20078;-70
2024/01/17 03:07:33;;;;;;;1999.90;999.90;;;-0.90;99.90;;;;;;5091891;28;20062;-70
2024/01/17 03:09:59;;;;;;;1999.90;999.90;;;-0.80;99.90;;;;;;5092303;28;20028;-70
2024/01/17 03:12:25;;;;;;;1999.90;999.90;;;-0.80;99.90;;;;;;5090761;28;20716;-70
2024/01/17 03:14:51;;;;;;;1999.90;999.90;;;-0.80;99.90;;;;;;5093178;28;20738;-69
2024/01/17 03:17:17;;;;;;;1999.90;999.90;;;-0.80;99.90;;;;;;5082280;28;20295;-70
2024/01/17 03:19:43;;;;;;;1999.90;999.90;;;-0.70;99.90;;;;;;5085415;28;20435;-69
2024/01/17 03:22:09;;;;;;;1999.90;999.90;;;-0.80;99.90;;;;;;5080731;28;20506;-70
2024/01/17 03:24:37;;;;;;;1999.90;999.90;;;-0.80;99.90;;;;;;5089075;28;20044;-69
2024/01/17 03:27:03;;;;;;;1999.90;999.90;;;-0.80;99.90;;;;;;5083349;28;20028;-70
2024/01/17 03:29:29;;;;;;;1999.90;999.90;;;-0.80;99.90;;;;;;5079556;28;21465;-70
2024/01/17 03:31:54;;;;;;;1999.90;999.90;;;-0.80;99.90;;;;;;5093397;28;20052;-70
2024/01/17 03:34:20;;;;;;;1999.90;999.90;;;-0.80;99.90;;;;;;5071942;28;20101;-69
2024/01/17 03:36:46;;;;;;;1999.90;999.90;;;-0.80;99.90;;;;;;5092500;28;20027;-69
2024/01/17 03:39:12;;;;;;;1999.90;999.90;;;-0.80;99.90;;;;;;5090826;28;20032;-69
2024/01/17 03:41:38;;;;;;;1999.90;999.90;;;-0.80;99.90;;;;;;5091339;28;20097;-69
2024/01/17 03:44:04;;;;;;;1999.90;999.90;;;-0.80;99.90;;;;;;5087236;28;20687;-70
2024/01/17 03:46:30;;;;;;;1999.90;999.90;;;-0.80;99.90;;;;;;5092996;28;20431;-69
2024/01/17 03:48:55;;;;;;;1999.90;999.90;;;-0.90;99.90;;;;;;5088392;28;20036;-69
2024/01/17 03:51:21;;;;;;;1999.90;999.90;;;-0.90;99.90;;;;;;5082104;28;20028;-70
2024/01/17 03:53:47;;;;;;;1999.90;999.90;;;-0.90;99.90;;;;;;5085711;28;20021;-70
2024/01/17 03:56:15;;;;;;;1999.90;999.90;;;-1.00;99.90;;;;;;5091326;28;20431;-69
2024/01/17 03:58:41;;;;;;;1999.90;999.90;;;-1.00;99.90;;;;;;5093250;28;20048;-69
2024/01/17 04:01:09;;;;;;;1999.90;999.90;;;-1.00;99.90;;;;;;5071668;28;20469;-69
2024/01/17 04:03:35;;;;;;;1999.90;999.90;;;-1.00;99.90;;;;;;5067281;28;20032;-70
2024/01/17 04:06:02;;;;;;;1999.90;999.90;;;-1.10;99.90;;;;;;5081967;28;20086;-69
2024/01/17 04:08:28;;;;;;;1999.90;999.90;;;-1.00;99.90;;;;;;5085779;28;20020;-70
2024/01/17 04:10:54;;;;;;;1999.90;999.90;;;-1.10;99.90;;;;;;5091732;28;20035;-70
2024/01/17 04:13:20;;;;;;;1999.90;999.90;;;-1.10;99.90;;;;;;5081983;28;20046;-69
2024/01/17 04:15:46;;;;;;;1999.90;999.90;;;-1.20;99.90;;;;;;5092612;28;20067;-69
2024/01/17 04:18:11;;;;;;;1999.90;999.90;;;-1.20;99.90;;;;;;5091283;28;20067;-70
2024/01/17 04:20:37;;;;;;;1999.90;999.90;;;-1.20;99.90;;;;;;5080397;28;20119;-70
2024/01/17 04:23:06;;;;;;;1999.90;999.90;;;-1.30;99.90;;;;;;5086429;28;20570;-70
2024/01/17 04:25:32;;;;;;;1999.90;999.90;;;-1.30;99.90;;;;;;5058421;28;20067;-70
2024/01/17 04:27:58;;;;;;;1999.90;999.90;;;-1.30;99.90;;;;;;5086383;28;20028;-70
2024/01/17 04:30:25;;;;;;;1999.90;999.90;;;-1.40;99.90;;;;;;5087744;28;20090;-70
2024/01/17 04:32:50;;;;;;;1999.90;999.90;;;-1.40;99.90;;;;;;5085558;28;20043;-70
2024/01/17 04:35:18;;;;;;;1999.90;999.90;;;-1.50;99.90;;;;;;5082563;28;20032;-70
2024/01/17 04:37:44;;;;;;;1999.90;999.90;;;-1.50;99.90;;;;;;5079818;28;20056;-70
2024/01/17 04:40:11;;;;;;;1999.90;999.90;;;-1.50;99.90;;;;;;5090710;28;20062;-70
2024/01/17 04:42:37;;;;;;;1999.90;999.90;;;-1.50;99.90;;;;;;5063861;28;20031;-70
2024/01/17 04:45:04;;;;;;;1999.90;999.90;;;-1.60;99.90;;;;;;5084874;28;20081;-70
2024/01/17 04:47:30;;;;;;;;;;;-1.60;99.90;;;;;;5087357;28;20423;-70
2024/01/17 04:49:56;;;;;;;1999.90;999.90;;;-1.60;99.90;;;;;;5091006;28;19916;-70
2024/01/17 04:52:22;;;;;;;1999.90;999.90;;;-1.60;99.90;;;;;;5091872;28;20050;-70
2024/01/17 04:54:51;;;;;;;1999.90;999.90;;;-1.60;99.90;;;;;;5090110;28;20032;-70
2024/01/17 04:57:17;;;;;;;1999.90;999.90;;;-1.60;99.90;;;;;;5088833;28;20453;-70
2024/01/17 04:59:42;;;;;;;1999.90;999.90;;;-1.60;99.90;;;;;;5089199;28;20032;-70
2024/01/17 05:02:09;;;;;;;1999.90;999.90;;;-1.60;99.90;;;;;;5066585;28;20035;-70
2024/01/17 05:04:34;;;;;;;1999.90;999.90;;;-1.60;99.90;;;;;;5089503;28;20365;-71
2024/01/17 05:07:00;;;;;;;1999.90;999.90;;;-1.60;99.90;;;;;;5090880;28;20121;-70
2024/01/17 05:09:26;;;;;;;1999.90;999.90;;;-1.60;99.90;;;;;;5091975;28;20028;-70
2024/01/17 05:11:52;;;;;;;1999.90;999.90;;;-1.60;99.90;;;;;;5091531;28;20028;-70
2024/01/17 05:14:18;;;;;;;1999.90;999.90;;;-1.60;99.90;;;;;;5091159;28;20460;-70
2024/01/17 05:16:44;;;;;;;1999.90;999.90;;;-1.70;99.90;;;;;;5091612;28;20028;-70
2024/01/17 05:19:10;;;;;;;1999.90;999.90;;;-1.70;99.90;;;;;;5089488;28;20028;-70
2024/01/17 05:21:36;;;;;;;1999.90;999.90;;;-1.70;99.90;;;;;;5094960;28;20081;-70
2024/01/17 05:24:01;;;;;;;1999.90;999.90;;;-1.80;99.90;;;;;;5080452;28;20546;-70
2024/01/17 05:26:27;;;;;;;1999.90;999.90;;;-1.80;99.90;;;;;;5095908;28;20027;-70
2024/01/17 05:28:53;;;;;;;1999.90;999.90;;;-1.80;99.90;;;;;;5088773;28;20037;-70
2024/01/17 05:31:18;;;;;;;1999.90;999.90;;;-1.80;99.90;;;;;;5089532;28;20033;-70
2024/01/17 05:33:44;;;;;;;1999.90;999.90;;;-1.90;99.90;;;;;;5074059;28;20580;-70
2024/01/17 05:36:10;;;;;;;1999.90;999.90;;;-1.80;99.90;;;;;;5077130;28;20031;-70
2024/01/17 05:38:37;;;;;;;1999.90;999.90;;;-1.90;99.90;;;;;;5086702;28;20323;-70
2024/01/17 05:41:03;;;;;;;1999.90;999.90;;;-1.90;99.90;;;;;;5070267;28;20389;-70
2024/01/17 05:43:30;;;;;;;1999.90;999.90;;;-1.90;99.90;;;;;;5091655;28;20032;-70
2024/01/17 05:45:57;;;;;;;1999.90;999.90;;;-1.90;99.90;;;;;;5070498;28;20024;-71
2024/01/17 05:48:24;;;;;;;1999.90;999.90;;;-1.90;99.90;;;;;;5094506;28;20111;-70
2024/01/17 05:50:49;;;;;;;1999.90;999.90;;;-1.90;99.90;;;;;;5066678;28;20028;-70
2024/01/17 05:53:15;;;;;;;1999.90;999.90;;;-1.90;99.90;;;;;;5064391;28;20027;-70
2024/01/17 05:55:42;;;;;;;1999.90;999.90;;;-1.90;99.90;;;;;;5089022;28;20028;-70
2024/01/17 05:58:09;;;;;;;1999.90;999.90;;;-1.90;99.90;;;;;;5085071;28;20024;-71
2024/01/17 06:00:34;;;;;;;1999.90;999.90;;;-1.80;99.90;;;;;;5070533;28;20036;-70
2024/01/17 06:03:00;;;;;;;1999.90;999.90;;;-1.90;99.90;;;;;;5075733;28;20067;-70
2024/01/17 06:05:26;;;;;;;1999.90;999.90;;;-1.90;99.90;;;;;;5093454;28;20031;-70
2024/01/17 06:07:52;;;;;;;1999.90;999.90;;;-1.90;99.90;;;;;;5069241;28;20033;-70
2024/01/17 06:10:17;;;;;;;1999.90;999.90;;;-1.90;99.90;;;;;;5094238;28;20031;-70
2024/01/17 06:12:43;;;;;;;1999.90;999.90;;;-1.90;99.90;;;;;;5095116;28;20031;-70
2024/01/17 06:15:11;;;;;;;1999.90;999.90;;;-1.80;99.90;;;;;;5075113;28;20111;-70
2024/01/17 06:17:37;;;;;;;1999.90;999.90;;;-1.80;99.90;;;;;;5094338;28;20031;-70
2024/01/17 06:20:03;;;;;;;1999.90;999.90;;;-1.80;99.90;;;;;;5073085;28;20032;-70
2024/01/17 06:22:29;;;;;;;1999.90;999.90;;;-1.70;99.90;;;;;;5086710;28;20367;-70
2024/01/17 06:24:55;;;;;;;1999.90;999.90;;;-1.70;99.90;;;;;;5093189;28;20125;-70
2024/01/17 06:27:22;;;;;;;1999.90;999.90;;;-1.70;99.90;;;;;;5094590;28;20032;-70
2024/01/17 06:29:47;;;;;;;;;;;-1.70;99.90;;;;;;5095302;28;20028;-70
2024/01/17 06:32:13;;;;;;;1999.90;999.90;;;-1.70;99.90;;;;;;5091654;28;19926;-70
2024/01/17 06:34:40;;;;;;;1999.90;999.90;;;-1.60;99.90;;;;;;5090480;28;20116;-70
2024/01/17 06:37:06;;;;;;;;;;;-1.60;99.90;;;;;;5083800;28;20330;-70
2024/01/17 06:39:32;;;;;;;1999.90;999.90;;;-1.60;99.90;;;;;;5091362;28;19908;-71
2024/01/17 06:41:58;;;;;;;1999.90;999.90;;;-1.50;99.90;;;;;;5093911;28;20043;-70
2024/01/17 06:44:25;;;;;;;1999.90;999.90;;;-1.50;99.90;;;;;;5092437;28;20118;-71
2024/01/17 06:46:51;;;;;;;;;;;-1.50;99.90;;;;;;5086441;28;20506;-70
2024/01/17 06:49:17;;;;;;;1999.90;999.90;;;-1.50;99.90;;;;;;5089470;28;20007;-70
2024/01/17 06:51:43;;;;;;;1999.90;999.90;;;-1.60;99.90;;;;;;5080951;28;20029;-70
2024/01/17 06:54:09;;;;;;;1999.90;999.90;;;-1.60;99.90;;;;;;5085527;28;20069;-70
2024/01/17 06:56:36;;;;;;;1999.90;999.90;;;-1.60;99.90;;;;;;5090485;28;20399;-70
2024/01/17 06:59:02;;;;;;;1999.90;999.90;;;-1.60;99.90;;;;;;5094474;28;20020;-70
2024/01/17 07:01:28;;;;;;;1999.90;999.90;;;-1.60;99.90;;;;;;5091449;28;20021;-70
2024/01/17 07:03:54;;;;;;;1999.90;999.90;;;-1.60;99.90;;;;;;5091678;28;20564;-70
2024/01/17 07:06:20;;;;;;;1999.90;999.90;;;-1.70;99.90;;;;;;5093427;28;20102;-71
2024/01/17 07:08:46;;;;;;;1999.90;999.90;;;-1.70;99.90;;;;;;5070083;28;20132;-70
2024/01/17 07:11:11;;;;;;;1999.90;999.90;;;-1.70;99.90;;;;;;5090210;28;20291;-70
2024/01/17 07:13:40;;;;;;;1999.90;999.90;;;-1.70;99.90;;;;;;5092406;28;20024;-70
2024/01/17 07:16:06;;;;;;;1999.90;999.90;;;-1.80;99.90;;;;;;5085161;28;20039;-70
2024/01/17 07:18:33;;;;;;;1999.90;999.90;;;-1.80;99.90;;;;;;5075164;28;20016;-71
2024/01/17 07:21:08;;;;;;;1999.90;999.90;;;-1.80;99.90;;;;;;5085444;28;20123;-71
2024/01/17 07:23:34;;;;;;;1999.90;999.90;;;-1.90;99.90;;;;;;5064729;28;20043;-71
2024/01/17 07:26:00;;;;;;;1999.90;999.90;;;-1.90;99.90;;;;;;5087541;28;20031;-70
2024/01/17 07:28:26;;;;;;;1999.90;999.90;;;-1.90;99.90;;;;;;5067777;28;20035;-70
2024/01/17 07:30:51;;;;;;;1999.90;999.90;;;-1.90;99.90;;;;;;5085485;28;20056;-70
2024/01/17 07:33:17;;;;;;;1999.90;999.90;;;-1.90;99.90;;;;;;5092840;28;20260;-70
2024/01/17 07:35:43;;;;;;;1999.90;999.90;;;-1.90;99.90;;;;;;5092719;28;20173;-70
2024/01/17 07:38:09;;;;;;;1999.90;999.90;;;-1.90;99.90;;;;;;5081141;28;20500;-70
2024/01/17 07:40:34;;;;;;;1999.90;999.90;;;-1.90;99.90;;;;;;5087374;28;20552;-71
2024/01/17 07:43:00;;;;;;;1999.90;999.90;;;-2.00;99.90;;;;;;5086400;28;20020;-70
2024/01/17 07:45:26;;;;;;;1999.90;999.90;;;-1.90;99.90;;;;;;5087010;28;20465;-70
2024/01/17 07:47:52;;;;;;;1999.90;999.90;;;-1.90;99.90;;;;;;5090558;28;20028;-70
2024/01/17 07:50:19;;;;;;;1999.90;999.90;;;-1.80;99.90;;;;;;5072218;28;20024;-71
2024/01/17 07:52:45;;;;;;;1999.90;999.90;;;-1.80;99.90;;;;;;5092705;28;20081;-71
2024/01/17 07:55:11;;;;;;;1999.90;999.90;;;-1.70;99.90;;;;;;5086741;28;20028;-70
2024/01/17 07:57:37;;;;;;;1999.90;999.90;;;-1.80;99.90;;;;;;5086850;28;20630;-70
2024/01/17 08:00:04;;;;;;;1999.90;999.90;;;-1.80;99.90;;;;;;5091226;28;20030;-71
2024/01/17 08:02:31;;;;;;;1999.90;999.90;;;-1.80;99.90;;;;;;5093109;28;20346;-71
2024/01/17 08:04:57;;;;;;;1999.90;999.90;;;-1.80;99.90;;;;;;5085504;28;20028;-71
2024/01/17 08:07:24;;;;;;;1999.90;999.90;;;-1.80;99.90;;;;;;5083548;28;20349;-71
2024/01/17 08:09:54;;;;;;;1999.90;999.90;;;-1.80;99.90;;;;;;5079467;28;20746;-70
2024/01/17 08:12:20;;;;;;;1999.90;999.90;;;-1.80;99.90;;;;;;5080407;28;20112;-71
2024/01/17 08:14:46;;;;;;;1999.90;999.90;;;-1.90;99.90;;;;;;5080534;28;20036;-71
2024/01/17 08:17:13;;;;;;;1999.90;999.90;;;-1.90;99.90;;;;;;5063189;28;20108;-71
2024/01/17 08:19:39;;;;;;;1999.90;999.90;;;-1.90;99.90;;;;;;5061508;28;20418;-70
2024/01/17 08:22:05;;;;;;;1999.90;999.90;;;-1.90;99.90;;;;;;5090114;28;20032;-70
2024/01/17 08:24:31;;;;;;;1999.90;999.90;;;-1.90;99.90;;;;;;5084069;28;20097;-70
2024/01/17 08:26:57;;;;;;;1999.90;999.90;;;-1.90;99.90;;;;;;5085220;28;20153;-71
2024/01/17 08:29:23;;;;;;;1999.90;999.90;;;-2.00;99.90;;;;;;5090080;28;20391;-70
2024/01/17 08:31:50;;;;;;;1999.90;999.90;;;-1.90;99.90;;;;;;5072809;28;20115;-70
2024/01/17 08:34:17;;;;;;;1999.90;999.90;;;-1.90;99.90;;;;;;5057036;28;20418;-71
2024/01/17 08:36:43;;;;;;;1999.90;999.90;;;-1.80;99.90;;;;;;5088353;28;20020;-70
2024/01/17 08:39:09;;;;;;;1999.90;999.90;;;-1.80;99.90;;;;;;5088317;28;20320;-70
2024/01/17 08:41:35;;;;;;;1999.90;999.90;;;-1.80;99.90;;;;;;5070623;28;20081;-70
2024/01/17 08:44:01;;;;;;;1999.90;999.90;;;-1.80;99.90;;;;;;5085140;28;20028;-70
2024/01/17 08:46:28;;;;;;;1999.90;999.90;;;-1.90;99.90;;;;;;5089859;28;20016;-70
2024/01/17 08:48:54;;;;;;;1999.90;999.90;;;-1.80;99.90;;;;;;5074522;28;20035;-70
2024/01/17 08:51:24;;;;;;;1999.90;999.90;;;-1.80;99.90;;;;;;5073609;28;20025;-71
2024/01/17 08:53:50;;;;;;;1999.90;999.90;;;-1.80;99.90;;;;;;5082664;28;20376;-71
2024/01/17 08:56:16;;;;;;;1999.90;999.90;;;-1.80;99.90;;;;;;5088138;28;20032;-71
2024/01/17 08:58:42;;;;;;;1999.90;999.90;;;-1.80;99.90;;;;;;5089279;28;20099;-70
2024/01/17 09:01:09;;;;;;;1999.90;999.90;;;-1.80;99.90;;;;;;5088088;28;20024;-70
2024/01/17 09:03:36;;;;;;;1999.90;999.90;;;-1.80;99.90;;;;;;5087039;28;20028;-71
2024/01/17 09:06:02;;;;;;;1999.90;999.90;;;-1.80;99.90;;;;;;5091068;28;21358;-71
2024/01/17 09:08:27;;;;;;;1999.90;999.90;;;-1.70;99.90;;;;;;5088478;28;20032;-70
2024/01/17 09:10:53;;;;;;;1999.90;999.90;;;-1.60;99.90;;;;;;5079655;28;20363;-70
2024/01/17 09:13:19;;;;;;;1999.90;999.90;;;-1.60;99.90;;;;;;5088316;28;20023;-70
2024/01/17 09:15:45;;;;;;;1999.90;999.90;;;-1.60;99.90;;;;;;5081799;28;20327;-70
2024/01/17 09:18:11;;;;;;;1999.90;999.90;;;-1.50;99.90;;;;;;5079766;28;20182;-71
2024/01/17 09:20:37;;;;;;;1999.90;999.90;;;-1.50;99.90;;;;;;5086084;28;20025;-71
2024/01/17 09:23:03;;;;;;;1999.90;999.90;;;-1.40;99.90;;;;;;5080595;28;20331;-70
2024/01/17 09:25:29;;;;;;;1999.90;999.90;;;-1.40;99.90;;;;;;5080265;28;20117;-70
2024/01/17 09:27:55;;;;;;;1999.90;999.90;;;-1.40;99.90;;;;;;5077800;28;20032;-70
2024/01/17 09:30:21;;;;;;;1999.90;999.90;;;-1.30;99.90;;;;;;5089964;28;20028;-70
2024/01/17 09:32:47;;;;;;;1999.90;999.90;;;-1.30;99.90;;;;;;5078197;28;20119;-71
2024/01/17 09:35:16;;;;;;;1999.90;999.90;;;-1.30;99.90;;;;;;5087163;28;20089;-71
2024/01/17 09:37:41;;;;;;;1999.90;999.90;;;-1.20;99.90;;;;;;5091305;28;20412;-71
2024/01/17 09:40:08;;;;;;;1999.90;999.90;;;-1.10;99.90;;;;;;5091283;28;20020;-71
2024/01/17 09:42:34;;;;;;;1999.90;999.90;;;-1.10;99.90;;;;;;5078467;28;20035;-70
2024/01/17 09:45:01;;;;;;;1999.90;999.90;;;-1.00;99.90;;;;;;5076834;28;20028;-70
2024/01/17 09:47:29;;;;;;;1999.90;999.90;;;-1.00;99.90;;;;;;5073843;28;20036;-70
2024/01/17 09:49:55;;;;;;;1999.90;999.90;;;-1.00;99.90;;;;;;5083641;28;20543;-70
2024/01/17 09:52:23;;;;;;;1999.90;999.90;;;-0.90;99.90;;;;;;5089943;28;20024;-70
2024/01/17 09:54:51;;;;;;;1999.90;999.90;;;-0.80;99.90;;;;;;5090901;28;20357;-71
2024/01/17 09:57:22;;;;;;;1999.90;999.90;;;-0.80;99.90;;;;;;5073486;28;20070;-70
2024/01/17 09:59:58;;;;;;;1999.90;999.90;;;-0.80;99.90;;;;;;5079929;28;20023;-71
2024/01/17 10:02:25;;;;;;;1999.90;999.90;;;-0.70;99.90;;;;;;5090112;28;20028;-70
2024/01/17 10:04:53;;;;;;;1999.90;999.90;;;-0.60;99.90;;;;;;5075091;28;20048;-70
2024/01/17 10:07:19;;;;;;;1999.90;999.90;;;-0.50;99.90;;;;;;5087932;28;20044;-70
2024/01/17 10:09:45;;;;;;;1999.90;999.90;;;-0.40;99.90;;;;;;5089004;28;20048;-70
2024/01/17 10:12:13;;;;;;;1999.90;999.90;;;-0.40;99.90;;;;;;5090857;28;20096;-70
2024/01/17 10:14:40;;;;;;;1999.90;999.90;;;-0.40;99.90;;;;;;5075665;28;20127;-70
2024/01/17 10:17:06;;;;;;;;;;;-0.40;99.90;;;;;;5090903;28;20024;-70
2024/01/17 10:19:32;;;;;;;1999.90;999.90;;;-0.40;99.90;;;;;;5092006;28;19908;-70
2024/01/17 10:22:02;;;;;;;1999.90;999.90;;;-0.40;99.90;;;;;;5089531;28;20070;-71
2024/01/17 10:24:32;;;;;;;1999.90;999.90;;;-0.30;99.90;;;;;;5081289;28;20370;-71
2024/01/17 10:27:01;;;;;;;1999.90;999.90;;;-0.30;99.90;;;;;;5088699;28;20024;-71
2024/01/17 10:29:27;;;;;;;1999.90;999.90;;;-0.30;99.90;;;;;;5082262;28;20028;-70
2024/01/17 10:31:58;;;;;;;1999.90;999.90;;;-0.30;99.90;;;;;;5072987;28;20044;-70
2024/01/17 10:34:27;;;;;;;1999.90;999.90;;;-0.20;99.90;;;;;;5085692;28;20411;-70
2024/01/17 10:36:53;;;;;;;1999.90;999.90;;;-0.20;99.90;;;;;;5088566;28;20027;-70
2024/01/17 10:39:20;;;;;;;1999.90;999.90;;;-0.20;99.90;;;;;;5087197;28;20020;-70
2024/01/17 10:41:56;;;;;;;1999.90;999.90;;;-0.10;99.90;;;;;;5088653;28;20106;-70
2024/01/17 10:44:23;;;;;;;1999.90;999.90;;;-0.10;99.90;;;;;;5090862;28;20032;-70
2024/01/17 10:46:53;;;;;;;1999.90;999.90;;;0.00;99.90;;;;;;5083686;28;20314;-70
2024/01/17 10:49:23;;;;;;;1999.90;999.90;;;0.00;99.90;;;;;;5094183;28;20040;-70
2024/01/17 10:52:07;;;;;;;1999.90;999.90;;;0.10;99.90;;;;;;5089538;28;20300;-70
2024/01/17 10:55:04;;;;;;;1999.90;999.90;;;0.20;99.90;;;;;;5089557;28;20119;-70
2024/01/17 10:57:32;;;;;;;;;;;0.20;99.90;;;;;;5087584;28;20040;-71
2024/01/17 11:00:03;;;;;;;1999.90;999.90;;;0.20;99.90;;;;;;5088115;28;19908;-70
2024/01/17 11:02:31;;;;;;;1999.90;999.90;;;0.30;99.90;;;;;;5069798;28;20024;-70
2024/01/17 11:05:05;;;;;;;1999.90;999.90;;;0.40;99.90;;;;;;5082727;28;20081;-70
2024/01/17 11:07:32;;;;;;;1999.90;999.90;;;0.40;99.90;;;;;;5093556;28;20078;-71
2024/01/17 11:10:03;;;;;;;1999.90;999.90;;;0.40;99.90;;;;;;5087430;28;20032;-71
2024/01/17 11:12:32;;;;;;;1999.90;999.90;;;0.50;99.90;;;;;;5083212;28;20039;-70
2024/01/17 11:15:00;;;;;;;1999.90;999.90;;;0.50;99.90;;;;;;5074249;28;20020;-71
2024/01/17 11:17:30;;;;;;;1999.90;999.90;;;0.50;99.90;;;;;;5093335;28;20099;-70
2024/01/17 11:19:57;;;;;;;1999.90;999.90;;;0.60;99.90;;;;;;5086059;28;20422;-71
2024/01/17 11:22:23;;;;;;;1999.90;999.90;;;0.60;99.90;;;;;;5090844;28;20111;-71
2024/01/17 11:25:26;;;;;;;1999.90;999.90;;;0.60;99.90;;;;;;5086166;28;20131;-71
2024/01/17 11:28:04;;;;;;;1999.90;999.90;;;0.60;99.90;;;;;;5086636;28;20073;-71
2024/01/17 11:30:54;;;;;;;1999.90;999.90;;;0.60;99.90;;;;;;5084056;28;20016;-71
2024/01/17 11:33:20;;;;;;;1999.90;999.90;;;0.70;99.90;;;;;;5089203;28;20051;-71
2024/01/17 11:35:51;;;;;;;1999.90;999.90;;;0.80;99.90;;;;;;5066954;28;20081;-71
2024/01/17 11:38:23;;;;;;;1999.90;999.90;;;0.80;99.90;;;;;;5087366;28;20102;-71
2024/01/17 11:40:50;;;;;;;1999.90;999.90;;;0.80;99.90;;;;;;5081485;28;20027;-71
2024/01/17 11:43:20;;;;;;;1999.90;999.90;;;0.90;99.90;;;;;;5092471;28;20465;-71
2024/01/17 11:45:53;;;;;;;1999.90;999.90;;;0.90;99.90;;;;;;5086774;28;20059;-71
2024/01/17 11:48:27;;;;;;;1999.90;999.90;;;0.90;99.90;;;;;;5090152;28;20468;-71
2024/01/17 11:51:05;;;;;;;1999.90;999.90;;;1.00;99.90;;;;;;5080179;28;20119;-71
2024/01/17 11:53:34;;;;;;;1999.90;999.90;;;1.00;99.90;;;;;;5085501;28;20046;-71
2024/01/17 11:56:04;;;;;;;1999.90;999.90;;;1.10;99.90;;;;;;5067968;28;20023;-71
2024/01/17 11:58:44;;;;;;;1999.90;999.90;;;1.00;99.90;;;;;;5092068;28;20036;-71
2024/01/17 12:01:12;;;;;;;1999.90;999.90;;;1.00;99.90;;;;;;5072998;28;20032;-71